Decoded Metar for LFST (STRASSBOURG in FRANCE) (IATA:SXB) | Meteo·Mobile Aviation Weather
aviador You're here:

LFST Decoded Metar

STRASSBOURG in FRANCE
Report Time2018-10-18 15:30:00
UTC Time2018-10-18 15:58:51
Flight Rules vfr VFR
Wind030° at 10 kt
W.Decomp.*RWY 05: 9.4 kt HW 3.4 kt LCW
W.Rank030° ranks 5
Current wind is above 030° avg. (7.2)
Visibility9999 m
Phenomena:N/A
Clouds:N/A
Expected CloudBase > 4,000 ft AGL from Temp-Dew spread
CeilingNone
Temp21°C (ISA +7)
Dew Point11°C (53% RH)
AAT17.7°C
QNH1018 hPa
Density Alt1,332 ft
Elevation505 ft
Report Wrong Elevation
Raw Report
METAR LFST 181530Z AUTO 03010KT CAVOK 21/11 Q1018 NOSIG=

Extra information for LFST:More info

Metar Taf Metar & Taf Last 4 Metars F.Rules Stats Wind Profile Meteogram Temp Stats Airport Information Weather charts Add Link Nearby VenuesMetar ALERT Operation Metar Decoded Social comments